Time;durP1;ratioP1;P1;durP2;ratioP2;P2;SDS_P1;SDS_P2;PMS_P1;PMS_P2;Temp;Humidity;BMP_temperature;BMP_pressure;BME280_temperature;BME280_humidity;BME280_pressure;Samples;Min_cycle;Max_cycle;Signal;HPM_P1;HPM_P2
2023/01/25 00:02:10;;;;;;;16.73;10.98;;;;;;;14.10;50.61;103921.41;5049187;28;20666;-34
2023/01/25 00:04:36;;;;;;;18.55;10.57;;;;;;;14.10;50.59;103922.28;5045210;28;20044;-35
2023/01/25 00:07:03;;;;;;;17.55;11.15;;;;;;;14.09;50.61;103925.88;5045345;28;20045;-35
2023/01/25 00:09:30;;;;;;;17.08;10.18;;;;;;;14.09;50.85;103920.53;5044805;28;20079;-35
2023/01/25 00:11:57;;;;;;;17.10;10.75;;;;;;;14.10;51.00;103921.41;5046244;28;20052;-35
2023/01/25 00:14:24;;;;;;;16.15;10.32;;;;;;;14.08;50.56;103916.16;5046899;28;20053;-35
2023/01/25 00:16:50;;;;;;;16.50;10.65;;;;;;;14.07;50.81;103909.06;5049002;28;20102;-35
2023/01/25 00:19:17;;;;;;;17.20;10.48;;;;;;;14.06;50.71;103893.97;5051985;28;20946;-36
2023/01/25 00:21:44;;;;;;;17.25;10.75;;;;;;;14.06;50.77;103897.50;5052159;28;20059;-35
2023/01/25 00:24:10;;;;;;;17.92;10.38;;;;;;;14.05;51.35;103898.44;5049357;28;20044;-38
2023/01/25 00:26:38;;;;;;;14.88;9.95;;;;;;;14.05;50.99;103892.25;5051020;28;20128;-38
2023/01/25 00:29:05;;;;;;;14.98;9.55;;;;;;;14.04;50.46;103891.38;5050090;28;20048;-35
2023/01/25 00:31:53;;;;;;;18.00;10.27;;;;;;;14.04;51.06;103893.16;5050880;28;20049;-34
2023/01/25 00:34:22;;;;;;;16.23;9.57;;;;;;;14.04;50.68;103886.03;5048559;28;20060;-34
2023/01/25 00:36:56;;;;;;;16.38;10.52;;;;;;;14.02;50.79;103882.53;5049436;28;20056;-34
2023/01/25 00:39:25;;;;;;;15.18;9.68;;;;;;;14.02;51.16;103887.88;5048277;28;20068;-35
2023/01/25 00:41:52;;;;;;;17.52;9.95;;;;;;;14.02;50.42;103885.19;5048013;28;20103;-35
2023/01/25 00:44:19;;;;;;;15.32;9.60;;;;;;;14.02;50.54;103881.66;5047188;28;20049;-35
2023/01/25 00:46:46;;;;;;;14.02;9.27;;;;;;;14.02;50.94;103876.34;5046946;28;20057;-35
2023/01/25 00:49:21;;;;;;;16.88;10.48;;;;;;;14.02;50.42;103887.00;5049168;28;20128;-34
2023/01/25 00:51:48;;;;;;;16.83;10.23;;;;;;;14.02;51.06;103881.66;5045770;28;20064;-34
2023/01/25 00:54:15;;;;;;;16.00;10.25;;;;;;;14.02;50.78;103877.19;5045587;28;20052;-34
2023/01/25 00:56:41;;;;;;;15.52;9.27;;;;;;;14.04;51.02;103874.50;5046387;28;20344;-34
2023/01/25 00:59:09;;;;;;;15.10;9.57;;;;;;;14.05;50.78;103876.25;5044959;28;20049;-34
2023/01/25 01:01:36;;;;;;;15.45;9.52;;;;;;;14.05;50.61;103878.91;5047171;28;20057;-34
2023/01/25 01:04:02;;;;;;;15.32;9.55;;;;;;;14.06;50.50;103870.84;5047054;28;20045;-34
2023/01/25 01:06:34;;;;;;;15.38;9.88;;;;;;;14.06;50.57;103873.50;5048664;28;20063;-35
2023/01/25 01:09:02;;;;;;;15.93;10.02;;;;;;;14.06;50.48;103873.50;5043662;28;20444;-34
2023/01/25 01:11:30;;;;;;;15.88;9.10;;;;;;;14.07;51.08;103869.06;5047155;28;20071;-35
2023/01/25 01:13:58;;;;;;;15.32;8.68;;;;;;;14.08;50.69;103870.81;5042054;28;20451;-34
2023/01/25 01:16:25;;;;;;;14.10;8.98;;;;;;;14.08;50.91;103862.81;5047563;28;20045;-35
2023/01/25 01:18:52;;;;;;;15.07;9.75;;;;;;;14.07;50.81;103864.59;5047005;28;20046;-34
2023/01/25 01:21:19;;;;;;;14.20;8.95;;;;;;;14.08;50.57;103869.00;5044703;28;20049;-35
2023/01/25 01:23:46;;;;;;;13.10;8.52;;;;;;;14.10;50.45;103865.41;5048416;28;20432;-34
2023/01/25 01:26:15;;;;;;;13.90;9.00;;;;;;;14.08;50.33;103863.66;5048478;28;20048;-34
2023/01/25 01:28:42;;;;;;;14.68;9.20;;;;;;;14.09;50.51;103864.53;5047508;28;20332;-34
2023/01/25 01:31:13;;;;;;;13.00;8.13;;;;;;;14.08;50.52;103862.81;5052508;28;20507;-34
2023/01/25 01:33:40;;;;;;;14.60;8.98;;;;;;;14.08;50.82;103854.81;5048924;28;20061;-34
2023/01/25 01:36:12;;;;;;;12.57;8.10;;;;;;;14.07;51.14;103850.41;5050273;28;20050;-35
2023/01/25 01:38:39;;;;;;;15.27;9.00;;;;;;;14.07;50.93;103861.06;5044897;28;20052;-35
2023/01/25 01:41:06;;;;;;;12.23;8.18;;;;;;;14.07;50.77;103861.94;5045697;28;20041;-34
2023/01/25 01:43:33;;;;;;;13.52;8.43;;;;;;;14.05;50.70;103866.44;5048712;28;20340;-35
2023/01/25 01:46:14;;;;;;;15.25;8.25;;;;;;;14.03;50.64;103862.97;5046101;28;20056;-34
2023/01/25 01:48:57;;;;;;;13.07;9.00;;;;;;;14.05;50.84;103861.09;5045702;28;20136;-36
2023/01/25 01:51:32;;;;;;;13.52;8.40;;;;;;;14.03;51.18;103865.63;5046833;28;20056;-35
2023/01/25 01:54:41;;;;;;;12.45;7.93;;;;;;;13.99;51.14;103864.00;5046679;28;20352;-34
2023/01/25 01:57:16;;;;;;;12.90;8.10;;;;;;;14.02;50.83;103863.00;5004510;28;20137;-35
2023/01/25 01:59:49;;;;;;;13.32;8.15;;;;;;;14.01;51.23;103859.47;5003318;28;20052;-35
2023/01/25 02:02:15;;;;;;;13.05;8.73;;;;;;;14.01;51.14;103863.94;5027994;28;20049;-35
2023/01/25 02:04:45;;;;;;;13.25;7.97;;;;;;;14.01;50.83;103858.59;5044079;28;20389;-34
2023/01/25 02:07:31;;;;;;;13.15;8.52;;;;;;;13.99;50.73;103857.75;5043971;28;20049;-37
2023/01/25 02:10:03;;;;;;;13.45;8.50;;;;;;;14.01;50.77;103855.94;5044459;28;20053;-38
2023/01/25 02:12:30;;;;;;;11.75;7.78;;;;;;;14.01;50.76;103861.28;5049364;28;20063;-37
2023/01/25 02:14:57;;;;;;;12.20;8.10;;;;;;;14.01;50.60;103853.25;5044214;28;20064;-35
2023/01/25 02:17:35;;;;;;;11.15;7.22;;;;;;;14.00;50.71;103846.19;5046230;28;20428;-36
2023/01/25 02:20:08;;;;;;;11.13;7.53;;;;;;;14.01;50.92;103845.28;5048488;28;20127;-35
2023/01/25 02:22:59;;;;;;;12.47;7.70;;;;;;;14.01;50.73;103843.47;5045672;28;20049;-35
2023/01/25 02:25:27;;;;;;;11.95;7.63;;;;;;;14.04;50.54;103838.03;5045888;28;20037;-35
2023/01/25 02:28:00;;;;;;;11.63;7.63;;;;;;;14.02;51.00;103841.66;5045976;28;20276;-34
2023/01/25 02:30:27;;;;;;;12.02;7.35;;;;;;;14.04;50.69;103839.84;5046436;28;20059;-35
2023/01/25 02:32:54;;;;;;;11.93;7.47;;;;;;;14.04;50.63;103839.84;5046683;28;20110;-35
2023/01/25 02:35:24;;;;;;;10.55;7.30;;;;;;;14.03;51.17;103841.63;5045624;28;20063;-35
2023/01/25 02:37:51;;;;;;;10.65;6.43;;;;;;;14.04;50.59;103832.69;5045023;28;20171;-35
2023/01/25 02:40:17;;;;;;;10.40;7.20;;;;;;;14.05;50.78;103829.09;5042532;28;20231;-35
2023/01/25 02:42:45;;;;;;;12.32;7.10;;;;;;;14.04;50.99;103832.69;5045015;28;20044;-35
2023/01/25 02:45:15;;;;;;;10.50;6.72;;;;;;;14.04;50.98;103826.50;5049511;28;20064;-35
2023/01/25 02:47:42;;;;;;;11.07;6.85;;;;;;;14.05;51.01;103828.22;5048134;28;20071;-35
2023/01/25 02:50:09;;;;;;;10.60;6.90;;;;;;;14.04;51.04;103822.03;5044932;28;20049;-35
2023/01/25 02:52:36;;;;;;;10.43;6.78;;;;;;;14.04;51.09;103818.50;5045961;28;20471;-35
2023/01/25 02:55:02;;;;;;;11.23;7.78;;;;;;;14.02;50.74;103820.34;5043170;28;20053;-38
2023/01/25 02:57:29;;;;;;;9.93;6.63;;;;;;;14.01;50.61;103815.94;5043273;28;20680;-35
2023/01/25 02:59:55;;;;;;;10.32;7.03;;;;;;;14.01;51.16;103813.25;5046315;28;20048;-35
2023/01/25 03:02:22;;;;;;;9.15;6.28;;;;;;;14.00;51.01;103814.19;5045880;28;20064;-35
2023/01/25 03:04:49;;;;;;;9.85;6.88;;;;;;;13.99;51.07;103813.34;5041489;28;20124;-35
2023/01/25 03:07:16;;;;;;;9.82;6.75;;;;;;;13.99;50.55;103807.09;5043117;28;20464;-35
2023/01/25 03:09:43;;;;;;;10.73;7.38;;;;;;;13.98;51.21;103808.91;5043927;28;20048;-34
2023/01/25 03:12:09;;;;;;;9.70;6.85;;;;;;;13.99;50.69;103801.75;5044054;28;20456;-37
2023/01/25 03:14:36;;;;;;;10.80;7.20;;;;;;;14.00;51.21;103798.19;5040618;28;20045;-36
2023/01/25 03:17:03;;;;;;;10.23;6.55;;;;;;;13.99;50.39;103794.66;5040874;28;20049;-36
2023/01/25 03:19:29;;;;;;;10.00;6.88;;;;;;;13.99;50.91;103796.44;5041345;28;20049;-35
2023/01/25 03:21:57;;;;;;;8.88;6.45;;;;;;;14.00;50.64;103800.88;5045292;28;20044;-35
2023/01/25 03:24:24;;;;;;;10.23;6.78;;;;;;;14.01;51.12;103800.78;5039031;28;20459;-35
2023/01/25 03:29:46;;;;;;;9.77;6.85;;;;;;;14.02;50.72;103791.00;5043299;28;20049;-35
2023/01/25 03:32:13;;;;;;;9.02;6.22;;;;;;;14.02;51.08;103785.66;5043529;28;20060;-35
2023/01/25 03:34:39;;;;;;;9.65;6.47;;;;;;;14.02;51.08;103783.00;5044242;28;20084;-34
2023/01/25 03:37:06;;;;;;;7.97;6.15;;;;;;;14.03;50.36;103790.06;5044054;28;20045;-35
2023/01/25 03:39:32;;;;;;;8.23;5.85;;;;;;;14.02;50.57;103780.34;5042856;28;20056;-35
2023/01/25 03:41:59;;;;;;;8.82;5.65;;;;;;;14.03;50.56;103774.97;5043247;28;20344;-34
2023/01/25 03:44:25;;;;;;;10.65;6.85;;;;;;;14.04;50.40;103770.50;5045285;28;20359;-35
2023/01/25 03:46:52;;;;;;;9.40;6.22;;;;;;;14.03;51.05;103776.72;5039555;28;20052;-35
2023/01/25 03:49:19;;;;;;;9.68;6.47;;;;;;;14.02;51.07;103765.19;5042541;28;20463;-36
2023/01/25 03:51:45;;;;;;;9.10;6.35;;;;;;;14.02;50.85;103765.19;5042163;28;20056;-36
2023/01/25 03:54:12;;;;;;;9.80;6.45;;;;;;;14.03;50.54;103760.72;5042307;28;20048;-35
2023/01/25 03:56:39;;;;;;;8.00;5.57;;;;;;;14.02;50.71;103765.19;5039681;28;20053;-35
2023/01/25 03:59:05;;;;;;;7.43;5.57;;;;;;;14.01;51.22;103763.47;5045352;28;20049;-35
2023/01/25 04:01:32;;;;;;;8.45;6.00;;;;;;;14.00;50.63;103766.19;5044584;28;20436;-35
2023/01/25 04:03:58;;;;;;;9.50;6.15;;;;;;;14.01;50.63;103762.59;5042925;28;20068;-35
2023/01/25 04:06:25;;;;;;;8.32;5.80;;;;;;;13.99;51.33;103762.66;5044004;28;20156;-35
2023/01/25 04:08:51;;;;;;;10.70;5.72;;;;;;;14.00;51.02;103766.19;5039830;28;20364;-34
2023/01/25 04:11:18;;;;;;;8.90;6.00;;;;;;;13.98;51.02;103758.22;5041268;28;20128;-35
2023/01/25 04:13:45;;;;;;;9.52;5.40;;;;;;;13.97;51.45;103760.97;5042773;28;20140;-35
2023/01/25 04:16:11;;;;;;;7.78;5.80;;;;;;;13.97;51.09;103771.63;5041707;28;20057;-35
2023/01/25 04:18:38;;;;;;;7.78;5.63;;;;;;;13.96;51.46;103767.22;5040648;28;20045;-34
2023/01/25 04:21:05;;;;;;;8.73;6.03;;;;;;;13.96;51.04;103762.78;5046458;28;20052;-34
2023/01/25 04:23:32;;;;;;;7.97;5.70;;;;;;;13.95;51.62;103766.38;5042413;28;20048;-34
2023/01/25 04:26:03;;;;;;;9.18;5.57;;;;;;;13.94;50.92;103761.94;5041470;28;20067;-34
2023/01/25 04:28:31;;;;;;;8.57;5.68;;;;;;;13.95;50.93;103749.47;5049770;28;20540;-34
2023/01/25 04:30:59;;;;;;;7.93;5.70;;;;;;;13.93;51.15;103752.22;5048981;28;20053;-34
2023/01/25 04:33:25;;;;;;;8.15;5.82;;;;;;;13.94;51.05;103747.75;5048673;28;20060;-34
2023/01/25 04:35:52;;;;;;;7.88;5.50;;;;;;;13.94;51.09;103753.06;5046107;28;20052;-35
2023/01/25 04:38:19;;;;;;;7.80;5.72;;;;;;;13.93;51.24;103754.00;5048536;28;20053;-35
2023/01/25 04:40:46;;;;;;;8.55;6.05;;;;;;;13.92;51.03;103746.94;5047872;28;20052;-34
2023/01/25 04:43:14;;;;;;;7.43;5.68;;;;;;;13.92;51.15;103744.28;5047956;28;20047;-34
2023/01/25 04:45:41;;;;;;;8.88;6.22;;;;;;;13.91;51.21;103745.19;5049658;28;20049;-35
2023/01/25 04:48:09;;;;;;;8.68;5.70;;;;;;;13.92;51.42;103744.28;5048157;28;20071;-35
2023/01/25 04:50:38;;;;;;;7.18;5.50;;;;;;;13.92;51.36;103730.94;5048605;28;20432;-35
2023/01/25 04:53:06;;;;;;;7.60;5.68;;;;;;;13.91;50.98;103727.41;5049103;28;20132;-35
2023/01/25 04:55:33;;;;;;;8.13;5.82;;;;;;;13.92;51.12;103725.63;5047596;28;20527;-38
2023/01/25 04:58:00;;;;;;;6.43;5.07;;;;;;;13.93;50.94;103732.69;5043905;28;20132;-34
2023/01/25 05:00:28;;;;;;;9.07;6.25;;;;;;;13.93;50.75;103730.00;5047065;28;20041;-34
2023/01/25 05:02:55;;;;;;;7.93;5.28;;;;;;;13.93;51.33;103730.88;5046918;28;20053;-34
2023/01/25 05:05:21;;;;;;;8.00;6.07;;;;;;;13.91;51.31;103732.75;5048270;28;20053;-35
2023/01/25 05:07:48;;;;;;;8.90;6.20;;;;;;;13.92;50.99;103722.94;5045999;28;20076;-36
2023/01/25 05:10:14;;;;;;;10.38;6.20;;;;;;;13.92;51.25;103722.94;5045189;28;20077;-34
2023/01/25 05:12:41;;;;;;;8.52;5.97;;;;;;;13.92;50.98;103720.28;5046790;28;20053;-35
2023/01/25 05:15:08;;;;;;;8.10;5.78;;;;;;;13.92;50.68;103723.81;5044055;28;20049;-34
2023/01/25 05:17:35;;;;;;;10.45;5.65;;;;;;;13.92;50.92;103714.94;5046196;28;20045;-35
2023/01/25 05:20:02;;;;;;;9.52;6.45;;;;;;;13.92;50.91;103714.94;5047181;28;20056;-35
2023/01/25 05:22:29;;;;;;;8.32;6.25;;;;;;;13.93;50.83;103716.69;5043087;28;20074;-34
2023/01/25 05:24:55;;;;;;;9.30;6.25;;;;;;;13.93;50.65;103722.88;5040221;28;20049;-33
2023/01/25 05:27:22;;;;;;;8.02;5.95;;;;;;;13.93;51.11;103727.34;5046320;28;20041;-38
2023/01/25 05:29:48;;;;;;;9.07;6.32;;;;;;;13.92;50.57;103714.94;5044293;28;20052;-34
2023/01/25 05:32:18;;;;;;;8.55;6.28;;;;;;;13.92;50.74;103721.16;5044984;28;20112;-35
2023/01/25 05:34:45;;;;;;;8.60;6.15;;;;;;;13.92;50.65;103715.81;5044302;28;20052;-35
2023/01/25 05:37:14;;;;;;;8.57;5.82;;;;;;;13.90;50.62;103722.97;5045861;28;20087;-35
2023/01/25 05:39:41;;;;;;;8.90;6.28;;;;;;;13.91;50.49;103727.41;5040892;28;20355;-35
2023/01/25 05:42:16;;;;;;;8.85;6.10;;;;;;;13.89;50.63;103721.25;5047706;28;20055;-34
2023/01/25 05:44:44;;;;;;;8.23;5.68;;;;;;;13.90;50.56;103717.66;5049366;28;20454;-36
2023/01/25 05:47:14;;;;;;;9.13;6.32;;;;;;;13.90;50.63;103722.97;5051180;28;20095;-35
2023/01/25 05:49:41;;;;;;;8.52;6.05;;;;;;;13.89;50.87;103723.06;5047867;28;20055;-35
2023/01/25 05:52:13;;;;;;;8.27;5.97;;;;;;;13.87;50.73;103711.56;5050252;28;20128;-35
2023/01/25 05:54:39;;;;;;;7.22;5.15;;;;;;;13.89;51.02;103715.06;5047847;28;20083;-35
2023/01/25 05:57:06;;;;;;;7.65;5.85;;;;;;;13.88;50.90;103716.84;5046486;28;20362;-35
2023/01/25 05:59:32;;;;;;;8.45;6.30;;;;;;;13.87;51.04;103712.44;5046721;28;20049;-35
2023/01/25 06:01:59;;;;;;;7.90;5.55;;;;;;;13.87;50.76;103719.56;5042770;28;20060;-35
2023/01/25 06:04:25;;;;;;;8.48;5.95;;;;;;;13.87;50.67;103722.22;5045518;28;20364;-35
2023/01/25 06:06:52;;;;;;;7.05;5.20;;;;;;;13.86;50.77;103725.81;5047665;28;20486;-35
2023/01/25 06:09:19;;;;;;;7.78;5.30;;;;;;;13.85;50.85;103724.94;5043562;28;20041;-35
2023/01/25 06:11:45;;;;;;;8.35;6.05;;;;;;;13.83;50.94;103727.69;5044574;28;20042;-35
2023/01/25 06:14:12;;;;;;;7.80;5.75;;;;;;;13.84;50.73;103731.22;5044269;28;21094;-34
2023/01/25 06:16:38;;;;;;;7.53;5.50;;;;;;;13.81;50.80;103732.19;5044929;28;20057;-35
2023/01/25 06:19:06;;;;;;;8.60;6.13;;;;;;;13.81;51.09;103729.53;5043493;28;20593;-35
2023/01/25 06:21:36;;;;;;;7.85;5.78;;;;;;;13.82;50.72;103733.06;5044810;28;20044;-35
2023/01/25 06:24:03;;;;;;;7.63;5.63;;;;;;;13.80;50.91;103743.78;5043805;28;20055;-36
2023/01/25 06:26:30;;;;;;;7.25;5.32;;;;;;;13.78;50.86;103737.63;5046081;28;20052;-35
2023/01/25 06:28:57;;;;;;;9.50;6.18;;;;;;;13.78;50.88;103734.97;5046785;28;20084;-35
2023/01/25 06:31:23;;;;;;;8.02;5.70;;;;;;;13.77;50.82;103729.69;5043319;28;20044;-35
2023/01/25 06:33:51;;;;;;;9.02;5.88;;;;;;;13.77;51.15;103727.91;5044760;28;20114;-34
2023/01/25 06:36:19;;;;;;;8.30;5.30;;;;;;;13.77;50.73;103727.91;5044760;28;20163;-35
2023/01/25 06:38:50;;;;;;;8.95;5.85;;;;;;;13.76;50.77;103731.50;5044449;28;20052;-35
2023/01/25 06:41:18;;;;;;;7.82;5.45;;;;;;;13.76;50.91;103726.16;5042052;28;20049;-37
2023/01/25 06:43:46;;;;;;;8.10;5.50;;;;;;;13.77;50.79;103722.56;5042012;28;20098;-35
2023/01/25 06:46:13;;;;;;;7.40;5.43;;;;;;;13.77;50.94;103717.22;5040127;28;20045;-36
2023/01/25 06:48:41;;;;;;;8.43;5.78;;;;;;;13.78;50.59;103728.75;5040121;28;20064;-35
2023/01/25 06:51:13;;;;;;;7.78;5.60;;;;;;;13.78;51.21;103732.28;5044175;28;20044;-34
2023/01/25 06:53:42;;;;;;;7.68;5.22;;;;;;;13.81;50.54;103731.31;5039015;28;20045;-34
2023/01/25 06:56:20;;;;;;;6.53;5.25;;;;;;;13.81;50.78;103723.31;5042383;28;20119;-34
2023/01/25 06:58:48;;;;;;;7.10;5.35;;;;;;;13.82;51.16;103720.59;5044867;28;20068;-34
2023/01/25 07:01:20;;;;;;;6.97;5.05;;;;;;;13.81;51.08;103724.19;5037738;28;20053;-34
2023/01/25 07:03:48;;;;;;;8.00;5.30;;;;;;;13.83;51.35;103717.03;5045537;28;20044;-34
2023/01/25 07:06:15;;;;;;;7.18;5.10;;;;;;;13.81;51.34;103713.53;5045647;28;20046;-34
2023/01/25 07:08:41;;;;;;;6.75;4.78;;;;;;;13.82;51.20;103717.94;5043145;28;20473;-35
2023/01/25 07:11:12;;;;;;;7.07;5.18;;;;;;;13.80;51.14;103706.47;5044616;28;20713;-34
2023/01/25 07:13:44;;;;;;;7.05;5.15;;;;;;;13.80;51.15;103716.25;5045889;28;20071;-35
2023/01/25 07:16:13;;;;;;;9.63;5.45;;;;;;;13.80;51.24;103717.13;5042778;28;20037;-35
2023/01/25 07:18:41;;;;;;;6.75;4.90;;;;;;;13.81;51.25;103707.31;5045216;28;20056;-35
2023/01/25 07:21:20;;;;;;;7.95;5.57;;;;;;;13.79;51.49;103710.06;5041457;28;20049;-36
2023/01/25 07:23:47;;;;;;;7.50;5.43;;;;;;;13.81;51.45;103712.66;5042310;28;20067;-37
2023/01/25 07:26:22;;;;;;;6.72;5.20;;;;;;;13.79;51.01;103709.19;5038052;28;20348;-34
2023/01/25 07:28:50;;;;;;;6.75;5.05;;;;;;;13.80;50.95;103708.25;5044493;28;20332;-34
2023/01/25 07:31:18;;;;;;;5.65;4.43;;;;;;;13.78;51.01;103708.31;5042821;28;20041;-36
2023/01/25 07:33:49;;;;;;;11.70;5.50;;;;;;;13.78;51.40;103700.31;5038833;28;20053;-36
2023/01/25 07:36:16;;;;;;;7.13;5.20;;;;;;;13.78;51.32;103697.63;5043853;28;20045;-34
2023/01/25 07:38:43;;;;;;;6.85;4.97;;;;;;;13.78;50.97;103692.31;5043083;28;20057;-34
2023/01/25 07:41:10;;;;;;;8.00;5.68;;;;;;;13.77;51.03;103687.91;5042667;28;20048;-35
2023/01/25 07:43:37;;;;;;;8.98;5.63;;;;;;;13.77;51.08;103695.91;5045908;28;20080;-34
2023/01/25 07:46:10;;;;;;;7.22;5.28;;;;;;;13.76;51.38;103695.97;5046437;28;20061;-35
2023/01/25 07:48:38;;;;;;;7.22;5.32;;;;;;;13.75;51.43;103695.09;5045887;28;20084;-35
2023/01/25 07:51:21;;;;;;;7.25;5.40;;;;;;;13.75;51.32;103695.09;5044915;28;20045;-37
2023/01/25 07:54:02;;;;;;;8.50;5.53;;;;;;;13.75;51.08;103692.44;5042395;28;20063;-34
2023/01/25 07:56:35;;;;;;;7.85;5.07;;;;;;;13.75;51.22;103681.78;5045556;28;20083;-37
2023/01/25 07:59:02;;;;;;;7.00;5.50;;;;;;;13.76;51.20;103682.66;5044227;28;20053;-34
2023/01/25 08:01:32;;;;;;;10.48;5.80;;;;;;;13.74;51.14;103672.03;5044908;28;20053;-35
2023/01/25 08:03:59;;;;;;;9.07;5.03;;;;;;;13.76;51.50;103674.66;5045591;28;20404;-34
2023/01/25 08:06:37;;;;;;;8.40;5.72;;;;;;;13.75;51.08;103671.13;5048975;28;20049;-34
2023/01/25 08:09:09;;;;;;;8.63;5.28;;;;;;;13.76;51.30;103672.84;5045450;28;20055;-34
2023/01/25 08:11:36;;;;;;;7.80;5.55;;;;;;;13.77;51.64;103673.72;5048726;28;20053;-34
2023/01/25 08:14:02;;;;;;;8.43;6.30;;;;;;;13.77;51.49;103666.59;5045141;28;20061;-34
2023/01/25 08:16:30;;;;;;;9.02;5.78;;;;;;;13.76;51.31;103669.31;5050429;28;20044;-34
2023/01/25 08:18:59;;;;;;;8.43;5.55;;;;;;;13.76;51.54;103672.84;5047408;28;20334;-35
2023/01/25 08:21:30;;;;;;;7.63;5.57;;;;;;;13.77;51.64;103673.72;5047700;28;20060;-34
2023/01/25 08:24:02;;;;;;;8.60;5.97;;;;;;;13.76;51.32;103677.31;5043967;28;20353;-35
2023/01/25 08:26:29;;;;;;;8.63;5.93;;;;;;;13.75;51.08;103683.56;5045696;28;20141;-35
2023/01/25 08:28:56;;;;;;;10.13;6.07;;;;;;;13.77;51.23;103685.25;5049172;28;20053;-34
2023/01/25 08:31:26;;;;;;;8.68;5.75;;;;;;;13.76;51.39;103687.97;5048765;28;20049;-34
2023/01/25 08:33:53;;;;;;;9.38;6.43;;;;;;;13.75;51.46;103679.13;5048056;28;20057;-35
2023/01/25 08:36:22;;;;;;;8.90;5.97;;;;;;;13.75;51.33;103681.78;5044127;28;20049;-34
2023/01/25 08:38:57;;;;;;;10.07;6.85;;;;;;;13.74;51.12;103680.00;5043700;28;20103;-35
2023/01/25 08:41:25;;;;;;;10.77;6.45;;;;;;;13.75;51.42;103673.78;5045331;28;20049;-34
2023/01/25 08:43:54;;;;;;;11.95;6.68;;;;;;;13.75;51.25;103670.25;5049556;28;20446;-34
2023/01/25 08:46:22;;;;;;;13.15;7.93;;;;;;;13.74;50.92;103664.03;5045271;28;20089;-35
2023/01/25 08:48:53;;;;;;;23.85;7.95;;;;;;;13.74;51.12;103656.03;5047252;28;20195;-34
2023/01/25 08:51:20;;;;;;;9.13;6.63;;;;;;;13.75;50.97;103655.13;5046330;28;20424;-34
2023/01/25 08:53:46;;;;;;;13.75;7.28;;;;;;;13.75;51.10;103651.59;5041552;28;20049;-36
2023/01/25 08:56:15;;;;;;;13.27;7.68;;;;;;;13.74;51.07;103653.34;5042875;28;20080;-34
2023/01/25 08:58:44;;;;;;;10.40;7.28;;;;;;;13.75;51.18;103654.25;5042489;28;20404;-33
2023/01/25 09:01:13;;;;;;;13.95;7.00;;;;;;;13.74;50.88;103650.69;5043159;28;20037;-36
2023/01/25 09:03:42;;;;;;;11.40;7.18;;;;;;;13.74;50.84;103645.38;5047941;28;20045;-36
2023/01/25 09:06:10;;;;;;;11.00;6.97;;;;;;;13.74;51.07;103653.34;5044845;28;20092;-35
2023/01/25 09:08:37;;;;;;;13.60;6.22;;;;;;;13.74;51.21;103642.69;5046612;28;20068;-36
2023/01/25 09:11:12;;;;;;;11.88;7.60;;;;;;;13.75;51.37;103647.13;5043691;28;20044;-36
2023/01/25 09:13:42;;;;;;;14.02;8.07;;;;;;;13.75;50.98;103643.59;5048252;28;20140;-36
2023/01/25 09:16:12;;;;;;;10.98;6.88;;;;;;;13.74;51.61;103648.03;5045409;28;20057;-34
2023/01/25 09:18:40;;;;;;;12.32;6.68;;;;;;;13.75;51.47;103649.78;5045234;28;20132;-34
2023/01/25 09:21:12;;;;;;;10.55;6.57;;;;;;;13.74;50.72;103645.38;5041592;28;20393;-35
2023/01/25 09:23:39;;;;;;;14.38;7.72;;;;;;;13.74;51.33;103647.16;5046165;28;20100;-34
2023/01/25 09:26:23;;;;;;;11.03;7.03;;;;;;;13.74;51.04;103645.38;5047700;28;20053;-34
2023/01/25 09:28:52;;;;;;;12.57;7.45;;;;;;;13.74;51.33;103642.69;5049089;28;20485;-35
2023/01/25 09:31:20;;;;;;;10.48;6.80;;;;;;;13.74;51.33;103648.03;5051556;28;20385;-34
2023/01/25 09:33:50;;;;;;;13.48;7.47;;;;;;;13.74;51.30;103647.16;5050338;28;20061;-34
2023/01/25 09:36:18;;;;;;;13.30;6.80;;;;;;;13.73;51.66;103640.97;5050171;28;20468;-34
2023/01/25 09:38:44;;;;;;;11.77;7.45;;;;;;;13.74;51.62;103632.03;5046534;28;20367;-35
2023/01/25 09:41:32;;;;;;;11.80;7.13;;;;;;;13.73;51.46;103635.63;5046354;28;20314;-34
2023/01/25 09:44:05;;;;;;;12.50;7.57;;;;;;;13.75;51.35;103628.47;5047309;28;20045;-34
2023/01/25 09:46:48;;;;;;;10.68;7.32;;;;;;;13.75;51.31;103624.94;5049932;28;20407;-34
2023/01/25 09:49:41;;;;;;;14.43;8.07;;;;;;;13.74;51.43;103625.84;5048084;28;20056;-34
2023/01/25 09:52:32;;;;;;;11.90;7.22;;;;;;;13.74;51.28;103626.72;5045128;28;20421;-34
2023/01/25 09:54:59;;;;;;;14.20;8.50;;;;;;;13.77;50.94;103623.06;5043199;28;20064;-34
2023/01/25 09:57:33;;;;;;;13.07;7.68;;;;;;;13.77;51.62;103623.06;5045160;28;20130;-34
2023/01/25 10:00:10;;;;;;;16.25;9.38;;;;;;;13.78;51.62;103624.78;5042744;28;20056;-34
2023/01/25 10:03:10;;;;;;;13.82;8.70;;;;;;;13.78;51.51;103622.13;5046703;28;20059;-34
2023/01/25 10:05:44;;;;;;;12.88;8.45;;;;;;;13.77;51.03;103607.94;5029328;28;20080;-35
2023/01/25 10:08:41;;;;;;;14.05;8.38;;;;;;;13.75;51.19;103607.16;5045322;28;20715;-34
2023/01/25 10:11:21;;;;;;;17.75;10.15;;;;;;;13.76;51.07;103595.56;5048914;28;20051;-35
2023/01/25 10:13:48;;;;;;;16.70;9.57;;;;;;;13.77;51.19;103589.28;5047022;28;20052;-36
2023/01/25 10:16:42;;;;;;;17.65;10.27;;;;;;;13.75;51.34;103587.63;5045930;28;20136;-34
2023/01/25 10:19:11;;;;;;;;;;;;;;;13.75;51.11;103580.50;5040067;28;20053;-34
2023/01/25 10:21:42;;;;;;;17.50;9.98;;;;;;;13.78;51.09;103583.00;5045772;28;19920;-34
2023/01/25 10:24:47;;;;;;;15.23;9.77;;;;;;;13.73;51.59;103581.47;5039605;28;20461;-34
2023/01/25 10:27:35;;;;;;;16.40;10.38;;;;;;;13.75;50.91;103575.16;5002636;28;20061;-34
2023/01/25 10:30:24;;;;;;;18.33;10.45;;;;;;;13.73;51.27;103576.13;5048396;28;20363;-34
2023/01/25 10:32:53;;;;;;;17.63;10.82;;;;;;;13.74;51.21;103578.72;5042122;28;20072;-37
2023/01/25 10:35:27;;;;;;;18.95;10.80;;;;;;;13.73;51.31;103571.66;5042910;28;20049;-34
2023/01/25 10:38:10;;;;;;;20.60;11.63;;;;;;;13.72;51.51;103567.28;5040470;28;20053;-34
2023/01/25 10:40:51;;;;;;;18.42;10.88;;;;;;;13.71;51.33;103569.97;5047594;28;20056;-34
2023/01/25 10:43:20;;;;;;;17.95;11.10;;;;;;;13.72;50.98;103558.41;5045650;28;20986;-35
2023/01/25 10:45:49;;;;;;;18.60;11.23;;;;;;;13.71;51.21;103560.22;5044102;28;20064;-36
2023/01/25 10:48:36;;;;;;;17.50;11.10;;;;;;;13.69;51.43;103546.06;5041914;28;20049;-35
2023/01/25 10:51:04;;;;;;;19.30;12.00;;;;;;;13.72;51.44;103545.09;5042565;28;20049;-35
2023/01/25 10:53:38;;;;;;;18.20;11.85;;;;;;;13.71;50.96;103540.66;5042576;28;20041;-34
2023/01/25 10:56:10;;;;;;;;;;;;;;;13.69;51.00;103532.72;5046803;28;20417;-36
2023/01/25 10:58:49;;;;;;;19.33;11.75;;;;;;;13.71;50.86;103533.56;5044224;28;19928;-35
2023/01/25 11:01:42;;;;;;;21.55;12.77;;;;;;;13.71;50.67;103530.91;5050135;28;20129;-35
2023/01/25 11:04:34;;;;;;;18.65;11.90;;;;;;;13.71;50.55;103516.66;5042471;28;20055;-35
2023/01/25 11:07:04;;;;;;;19.73;11.73;;;;;;;13.73;50.92;103515.69;5038158;28;20053;-35
2023/01/25 11:09:35;;;;;;;19.08;12.05;;;;;;;13.74;50.73;103504.09;5040893;28;20532;-34
2023/01/25 11:12:15;;;;;;;20.13;11.73;;;;;;;13.75;50.86;103499.66;5047505;28;20122;-35
2023/01/25 11:14:48;;;;;;;20.13;11.88;;;;;;;13.76;50.69;103496.94;5049393;28;20041;-38
2023/01/25 11:17:28;;;;;;;19.48;11.98;;;;;;;13.75;51.00;103492.53;5045086;28;20041;-35
2023/01/25 11:20:15;;;;;;;22.10;13.50;;;;;;;13.75;50.88;103500.53;5044686;28;20051;-37
2023/01/25 11:22:50;;;;;;;21.23;12.77;;;;;;;13.74;50.51;103490.78;5047574;28;20094;-35
2023/01/25 11:25:27;;;;;;;20.70;12.50;;;;;;;13.74;50.55;103487.25;5041996;28;20057;-34
2023/01/25 11:28:29;;;;;;;19.05;12.23;;;;;;;13.70;50.69;103475.81;5038991;28;20614;-35
2023/01/25 11:30:56;;;;;;;21.77;12.35;;;;;;;13.74;50.40;103472.09;5024379;28;20270;-35
2023/01/25 11:33:25;;;;;;;20.33;12.95;;;;;;;13.73;50.52;103458.84;5037442;28;20069;-37
2023/01/25 11:36:01;;;;;;;20.67;12.60;;;;;;;13.72;50.97;103460.66;5042812;28;20080;-35
2023/01/25 11:38:27;;;;;;;20.13;12.60;;;;;;;13.73;50.43;103448.19;5048530;28;20087;-34